createdAt,value
2023-05-17T00:00:55.081Z,22.85
2023-05-17T00:01:55.078Z,22.90
2023-05-17T00:02:55.105Z,22.94
2023-05-17T00:03:55.067Z,22.98
2023-05-17T00:04:55.211Z,23.03
2023-05-17T00:05:55.120Z,23.07
2023-05-17T00:06:55.044Z,23.12
2023-05-17T00:07:55.071Z,23.16
2023-05-17T00:08:55.068Z,23.19
2023-05-17T00:09:55.037Z,23.24
2023-05-17T00:10:55.020Z,23.27
2023-05-17T00:11:55.043Z,23.29
2023-05-17T00:12:54.998Z,23.32
2023-05-17T00:13:55.000Z,23.35
2023-05-17T00:14:55.007Z,23.37
2023-05-17T00:15:54.983Z,23.39
2023-05-17T00:16:54.995Z,23.42
2023-05-17T00:17:55.009Z,23.45
2023-05-17T00:18:55.069Z,23.46
2023-05-17T00:19:55.081Z,23.48
2023-05-17T00:20:54.948Z,23.50
2023-05-17T00:21:54.948Z,23.51
2023-05-17T00:22:54.932Z,23.52
2023-05-17T00:23:54.927Z,23.53
2023-05-17T00:24:54.920Z,23.53
2023-05-17T00:25:54.905Z,23.54
2023-05-17T00:26:54.903Z,23.56
2023-05-17T00:27:54.993Z,23.57
2023-05-17T00:28:54.904Z,23.58
2023-05-17T00:29:54.898Z,23.58
2023-05-17T00:30:54.878Z,23.59
2023-05-17T00:31:54.876Z,23.59
2023-05-17T00:32:54.959Z,23.59
2023-05-17T00:33:54.860Z,23.60
2023-05-17T00:34:54.917Z,23.60
2023-05-17T00:35:54.840Z,23.60
2023-05-17T00:36:54.862Z,23.61
2023-05-17T00:37:54.833Z,23.61
2023-05-17T00:38:54.818Z,23.61
2023-05-17T00:39:54.814Z,23.61
2023-05-17T00:40:54.811Z,23.61
2023-05-17T00:41:54.814Z,23.62
2023-05-17T00:42:54.804Z,23.61
2023-05-17T00:43:54.885Z,23.62
2023-05-17T00:44:54.799Z,23.62
2023-05-17T00:45:54.777Z,23.63
2023-05-17T00:46:54.770Z,23.62
2023-05-17T00:47:54.869Z,23.62
2023-05-17T00:48:54.755Z,23.62
2023-05-17T00:49:54.744Z,23.62
2023-05-17T00:50:54.737Z,23.63
2023-05-17T00:51:54.731Z,23.62
2023-05-17T00:52:54.752Z,23.62
2023-05-17T00:53:54.766Z,23.62
2023-05-17T00:54:54.759Z,23.62
2023-05-17T00:55:54.767Z,23.62
2023-05-17T00:56:54.768Z,23.63
2023-05-17T00:57:54.765Z,23.63
2023-05-17T00:59:01.876Z,23.63
2023-05-17T00:59:54.782Z,23.62
2023-05-17T01:00:54.780Z,23.63
2023-05-17T01:01:54.771Z,23.63
2023-05-17T01:02:54.843Z,23.62
2023-05-17T01:03:54.910Z,23.63
2023-05-17T01:04:54.834Z,23.63
2023-05-17T01:05:54.755Z,23.63
2023-05-17T01:06:54.748Z,23.63
2023-05-17T01:07:54.733Z,23.63
2023-05-17T01:08:54.741Z,23.63
2023-05-17T01:09:54.713Z,23.64
2023-05-17T01:10:54.707Z,23.64
2023-05-17T01:11:54.699Z,23.64
2023-05-17T01:12:54.693Z,23.64
2023-05-17T01:13:54.718Z,23.63
2023-05-17T01:14:54.850Z,23.63
2023-05-17T01:15:54.792Z,23.64
2023-05-17T01:16:54.829Z,23.64
2023-05-17T01:17:54.952Z,23.63
2023-05-17T01:18:54.977Z,23.64
2023-05-17T01:19:55.007Z,23.64
2023-05-17T01:20:54.963Z,23.63
2023-05-17T01:21:55.020Z,23.63
2023-05-17T01:22:55.022Z,23.63
2023-05-17T01:23:55.067Z,23.63
2023-05-17T01:24:55.107Z,23.63
2023-05-17T01:25:55.126Z,23.63
2023-05-17T01:26:55.181Z,23.63
2023-05-17T01:27:55.200Z,23.64
2023-05-17T01:28:55.219Z,23.63
2023-05-17T01:29:55.260Z,23.63
2023-05-17T01:30:55.410Z,23.64
2023-05-17T01:31:55.327Z,23.64
2023-05-17T01:32:55.476Z,23.64
2023-05-17T01:33:55.483Z,23.64
2023-05-17T01:34:55.435Z,23.65
2023-05-17T01:35:55.473Z,23.64
2023-05-17T01:36:55.540Z,23.63
2023-05-17T01:37:55.582Z,23.64
2023-05-17T01:38:55.606Z,23.64
2023-05-17T01:39:55.650Z,23.64
2023-05-17T01:40:55.669Z,23.64
2023-05-17T01:41:55.701Z,23.63
2023-05-17T01:42:55.729Z,23.64
2023-05-17T01:43:55.791Z,23.64
2023-05-17T01:44:55.753Z,23.64
2023-05-17T01:45:55.787Z,23.63
2023-05-17T01:46:56.030Z,23.63
2023-05-17T01:47:55.928Z,23.64
2023-05-17T01:48:56.114Z,23.64
2023-05-17T01:49:55.925Z,23.64
2023-05-17T01:50:55.952Z,23.64
2023-05-17T01:51:55.973Z,23.63
2023-05-17T01:52:56.027Z,23.64
2023-05-17T01:53:56.043Z,23.64
2023-05-17T01:54:56.057Z,23.64
2023-05-17T01:55:56.103Z,23.64
2023-05-17T01:56:56.158Z,23.64
2023-05-17T01:57:56.173Z,23.64
2023-05-17T01:58:56.193Z,23.64
2023-05-17T01:59:56.227Z,23.64
2023-05-17T02:00:56.260Z,23.64
2023-05-17T02:01:56.301Z,23.64
2023-05-17T02:02:56.511Z,23.64
2023-05-17T02:03:56.413Z,23.63
2023-05-17T02:04:56.472Z,23.64
2023-05-17T02:05:56.497Z,23.64
2023-05-17T02:06:56.511Z,23.64
2023-05-17T02:07:56.580Z,23.65
2023-05-17T02:08:56.554Z,23.65
2023-05-17T02:09:56.566Z,23.65
2023-05-17T02:10:56.582Z,23.64
2023-05-17T02:11:56.605Z,23.64
2023-05-17T02:12:56.625Z,23.64
2023-05-17T02:13:56.654Z,23.64
2023-05-17T02:14:56.678Z,23.64
2023-05-17T02:15:56.698Z,23.64
2023-05-17T02:16:56.712Z,23.65
2023-05-17T02:17:56.788Z,23.65
2023-05-17T02:18:56.951Z,23.65
2023-05-17T02:19:56.831Z,23.64
2023-05-17T02:20:56.885Z,23.64
2023-05-17T02:21:56.945Z,23.64
2023-05-17T02:22:56.956Z,23.65
2023-05-17T02:23:56.987Z,23.65
2023-05-17T02:24:57.040Z,23.64
2023-05-17T02:25:57.051Z,23.64
2023-05-17T02:26:57.100Z,23.64
2023-05-17T02:27:57.130Z,23.64
2023-05-17T02:28:57.183Z,23.64
2023-05-17T02:29:57.204Z,23.64
2023-05-17T02:30:57.230Z,23.64
2023-05-17T02:31:57.277Z,23.65
2023-05-17T02:32:57.374Z,23.65
2023-05-17T02:33:57.441Z,23.65
2023-05-17T02:34:57.583Z,23.63
2023-05-17T02:35:57.468Z,23.64
2023-05-17T02:36:57.539Z,23.64
2023-05-17T02:37:57.597Z,23.64
2023-05-17T02:38:57.605Z,23.64
2023-05-17T02:39:57.652Z,23.64
2023-05-17T02:40:57.701Z,23.64
2023-05-17T02:41:57.770Z,23.64
2023-05-17T02:42:57.795Z,23.64
2023-05-17T02:43:57.916Z,23.64
2023-05-17T02:44:57.901Z,23.64
2023-05-17T02:45:57.933Z,23.64
2023-05-17T02:46:58.000Z,23.64
2023-05-17T02:47:58.059Z,23.64
2023-05-17T02:48:58.085Z,23.64
2023-05-17T02:49:58.140Z,23.64
2023-05-17T02:50:58.300Z,23.65
2023-05-17T02:51:58.212Z,23.64
2023-05-17T02:52:58.255Z,23.64
2023-05-17T02:53:58.292Z,23.65
2023-05-17T02:54:58.335Z,23.64
2023-05-17T02:55:58.904Z,23.64
2023-05-17T02:56:58.381Z,23.63
2023-05-17T02:57:58.424Z,23.63
2023-05-17T02:58:58.442Z,23.63
2023-05-17T02:59:58.479Z,23.63
2023-05-17T03:00:58.515Z,23.63
2023-05-17T03:01:58.519Z,23.62
2023-05-17T03:02:58.615Z,23.63
2023-05-17T03:03:58.769Z,23.63
2023-05-17T03:04:58.599Z,23.63
2023-05-17T03:05:58.646Z,23.64
2023-05-17T03:06:58.884Z,23.63
2023-05-17T03:07:58.761Z,23.64
2023-05-17T03:08:58.755Z,23.64
2023-05-17T03:09:58.777Z,23.63
2023-05-17T03:10:58.819Z,23.63
2023-05-17T03:11:58.849Z,23.64
2023-05-17T03:12:58.878Z,23.64
2023-05-17T03:13:58.905Z,23.63
2023-05-17T03:14:58.936Z,23.64
2023-05-17T03:15:58.990Z,23.64
2023-05-17T03:16:59.043Z,23.64
2023-05-17T03:17:59.157Z,23.64
2023-05-17T03:18:59.251Z,23.63
2023-05-17T03:19:59.165Z,23.63
2023-05-17T03:20:59.189Z,23.63
2023-05-17T03:21:59.242Z,23.63
2023-05-17T03:22:59.359Z,23.63
2023-05-17T03:23:59.297Z,23.63
2023-05-17T03:24:59.325Z,23.63
2023-05-17T03:25:59.367Z,23.63
2023-05-17T03:26:59.377Z,23.63
2023-05-17T03:27:59.403Z,23.64
2023-05-17T03:28:59.434Z,23.63
2023-05-17T03:29:59.451Z,23.63
2023-05-17T03:30:59.623Z,23.64
2023-05-17T03:31:59.496Z,23.64
2023-05-17T03:32:59.561Z,23.63
2023-05-17T03:33:59.705Z,23.64
2023-05-17T03:34:59.558Z,23.64
2023-05-17T03:35:59.591Z,23.63
2023-05-17T03:36:59.649Z,23.63
2023-05-17T03:37:59.694Z,23.64
2023-05-17T03:38:59.866Z,23.64
2023-05-17T03:39:59.782Z,23.63
2023-05-17T03:40:59.835Z,23.63
2023-05-17T03:41:59.872Z,23.63
2023-05-17T03:42:59.894Z,23.63
2023-05-17T03:43:59.942Z,23.63
2023-05-17T03:44:59.960Z,23.64
2023-05-17T03:46:00.006Z,23.63
2023-05-17T03:47:00.051Z,23.63
2023-05-17T03:48:00.191Z,23.62
2023-05-17T03:49:00.189Z,23.62
2023-05-17T03:50:00.203Z,23.63
2023-05-17T03:51:00.189Z,23.62
2023-05-17T03:52:00.212Z,23.63
2023-05-17T03:53:00.234Z,23.62
2023-05-17T03:54:00.264Z,23.62
2023-05-17T03:55:00.486Z,23.62
2023-05-17T03:56:00.308Z,23.63
2023-05-17T03:57:00.334Z,23.63
2023-05-17T03:58:00.370Z,23.63
2023-05-17T03:59:00.392Z,23.64
2023-05-17T04:00:00.442Z,23.63
2023-05-17T04:01:00.454Z,23.63
2023-05-17T04:02:00.475Z,23.63
2023-05-17T04:03:00.572Z,23.63
2023-05-17T04:04:00.575Z,23.64
2023-05-17T04:05:00.642Z,23.63
2023-05-17T04:06:00.615Z,23.62
2023-05-17T04:07:00.649Z,23.62
2023-05-17T04:08:00.697Z,23.62
2023-05-17T04:09:00.718Z,23.62
2023-05-17T04:10:00.747Z,23.63
2023-05-17T04:11:00.890Z,23.63
2023-05-17T04:12:00.804Z,23.62
2023-05-17T04:13:00.822Z,23.63
2023-05-17T04:14:00.839Z,23.62
2023-05-17T04:15:00.851Z,23.62
2023-05-17T04:16:00.865Z,23.62
2023-05-17T04:17:00.876Z,23.62
2023-05-17T04:18:01.051Z,23.62
2023-05-17T04:19:01.052Z,23.62
2023-05-17T04:20:00.943Z,23.61
2023-05-17T04:21:00.966Z,23.61
2023-05-17T04:22:00.998Z,23.61
2023-05-17T04:23:01.013Z,23.62
2023-05-17T04:24:01.031Z,23.62
2023-05-17T04:25:01.081Z,23.61
2023-05-17T04:26:01.137Z,23.62
2023-05-17T04:27:03.354Z,23.62
2023-05-17T04:28:01.137Z,23.61
2023-05-17T04:29:01.130Z,23.62
2023-05-17T04:30:01.140Z,23.61
2023-05-17T04:31:01.124Z,23.62
2023-05-17T04:32:01.112Z,23.62
2023-05-17T04:33:01.203Z,23.62
2023-05-17T04:34:01.157Z,23.61
2023-05-17T04:35:01.124Z,23.61
2023-05-17T04:36:01.100Z,23.62
2023-05-17T04:37:01.084Z,23.62
2023-05-17T04:38:01.069Z,23.62
2023-05-17T04:39:01.066Z,23.62
2023-05-17T04:40:01.060Z,23.62
2023-05-17T04:41:01.053Z,23.63
2023-05-17T04:42:01.044Z,23.62
2023-05-17T04:43:01.158Z,23.62
2023-05-17T04:44:01.039Z,23.62
2023-05-17T04:45:01.049Z,23.62
2023-05-17T04:46:01.061Z,23.63
2023-05-17T04:47:01.011Z,23.62
2023-05-17T04:48:01.084Z,23.62
2023-05-17T04:49:01.007Z,23.62
2023-05-17T04:50:00.984Z,23.62
2023-05-17T04:51:00.990Z,23.62
2023-05-17T04:52:00.970Z,23.61
2023-05-17T04:53:00.976Z,23.62
2023-05-17T04:54:01.056Z,23.62
2023-05-17T04:55:00.954Z,23.62
2023-05-17T04:56:00.958Z,23.62
2023-05-17T04:57:00.941Z,23.62
2023-05-17T04:58:00.951Z,23.62
2023-05-17T04:59:01.062Z,23.62
2023-05-17T05:00:00.922Z,23.61
2023-05-17T05:01:00.906Z,23.61
2023-05-17T05:02:00.902Z,23.61
2023-05-17T05:03:00.921Z,23.62
2023-05-17T05:04:00.957Z,23.62
2023-05-17T05:05:01.028Z,23.62
2023-05-17T05:06:00.899Z,23.62
2023-05-17T05:07:00.917Z,23.62
2023-05-17T05:08:00.922Z,23.62
2023-05-17T05:09:00.947Z,23.62
2023-05-17T05:10:00.967Z,23.62
2023-05-17T05:11:00.998Z,23.62
2023-05-17T05:12:01.021Z,23.61
2023-05-17T05:13:01.441Z,23.62
2023-05-17T05:14:01.083Z,23.62
2023-05-17T05:15:01.458Z,23.61
2023-05-17T05:16:01.185Z,23.62
2023-05-17T05:17:01.221Z,23.61
2023-05-17T05:18:01.500Z,23.61
2023-05-17T05:19:01.387Z,23.61
2023-05-17T05:20:01.336Z,23.62
2023-05-17T05:21:01.348Z,23.62
2023-05-17T05:22:01.381Z,23.64
2023-05-17T05:23:01.438Z,23.64
2023-05-17T05:24:01.470Z,23.65
2023-05-17T05:25:01.942Z,23.66
2023-05-17T05:26:01.535Z,23.67
2023-05-17T05:27:01.569Z,23.68
2023-05-17T05:28:01.622Z,23.68
2023-05-17T05:29:01.673Z,23.69
2023-05-17T05:30:01.713Z,23.69
2023-05-17T05:31:01.916Z,23.70
2023-05-17T05:32:01.790Z,23.70
2023-05-17T05:33:02.092Z,23.70
2023-05-17T05:34:01.932Z,23.70
2023-05-17T05:35:01.951Z,23.71
2023-05-17T05:36:02.080Z,23.71
2023-05-17T05:37:02.043Z,23.71
2023-05-17T05:38:02.098Z,23.72
2023-05-17T05:39:02.136Z,23.72
2023-05-17T05:40:02.179Z,23.72
2023-05-17T05:41:02.236Z,23.71
2023-05-17T05:42:02.264Z,23.71
2023-05-17T05:43:02.460Z,23.73
2023-05-17T05:44:02.369Z,23.72
2023-05-17T05:45:02.415Z,23.72
2023-05-17T05:46:02.465Z,23.72
2023-05-17T05:47:03.072Z,23.73
2023-05-17T05:48:03.008Z,23.73
2023-05-17T05:49:02.784Z,23.73
2023-05-17T05:50:02.716Z,23.73
2023-05-17T05:51:02.753Z,23.73
2023-05-17T05:52:02.817Z,23.74
2023-05-17T05:53:17.114Z,23.75
2023-05-17T05:54:02.878Z,23.74
2023-05-17T05:55:06.161Z,23.75
2023-05-17T05:57:10.265Z,23.75
2023-05-17T05:58:02.868Z,23.75
2023-05-17T05:59:02.849Z,23.79
2023-05-17T06:00:02.842Z,23.82
2023-05-17T06:01:05.368Z,23.83
2023-05-17T06:02:10.365Z,23.85
2023-05-17T06:03:03.017Z,23.87
2023-05-17T06:04:06.041Z,23.89
2023-05-17T06:05:02.803Z,23.92
2023-05-17T06:06:02.904Z,23.94
2023-05-17T06:07:02.834Z,23.96
2023-05-17T06:08:02.966Z,23.99
2023-05-17T06:09:02.789Z,24.00
2023-05-17T06:10:02.785Z,24.02
2023-05-17T06:11:02.760Z,24.03
2023-05-17T06:12:02.753Z,24.03
2023-05-17T06:13:02.968Z,24.04
2023-05-17T06:14:02.758Z,24.05
2023-05-17T06:15:02.723Z,24.05
2023-05-17T06:16:02.736Z,24.07
2023-05-17T06:17:02.717Z,24.07
2023-05-17T06:18:03.116Z,24.09
2023-05-17T06:19:02.891Z,24.08
2023-05-17T06:20:02.804Z,24.10
2023-05-17T06:21:03.474Z,24.12
2023-05-17T06:22:02.697Z,24.12
2023-05-17T06:23:02.971Z,24.13
2023-05-17T06:24:04.905Z,24.13
2023-05-17T06:25:02.659Z,24.14
2023-05-17T06:26:02.690Z,24.15
2023-05-17T06:27:02.666Z,24.17
2023-05-17T06:28:03.048Z,24.17
2023-05-17T06:29:02.639Z,24.17
2023-05-17T06:30:04.886Z,24.18
2023-05-17T06:31:02.972Z,24.19
2023-05-17T06:32:02.600Z,24.19
2023-05-17T06:33:03.052Z,24.19
2023-05-17T06:34:02.749Z,24.20
2023-05-17T06:35:02.621Z,24.20
2023-05-17T06:37:01.576Z,24.22
2023-05-17T06:38:02.972Z,24.22
2023-05-17T06:39:02.559Z,24.23
2023-05-17T06:40:10.103Z,24.23
2023-05-17T06:41:02.569Z,24.22
2023-05-17T06:42:02.559Z,24.22
2023-05-17T06:43:02.985Z,24.24
2023-05-17T06:44:03.499Z,24.24
2023-05-17T06:45:05.715Z,24.24
2023-05-17T06:46:02.984Z,24.23
2023-05-17T06:47:02.555Z,24.24
2023-05-17T06:48:03.047Z,24.24
2023-05-17T06:49:02.788Z,24.23
2023-05-17T06:50:03.589Z,24.22
2023-05-17T06:51:09.872Z,24.22
2023-05-17T06:52:05.675Z,24.21
2023-05-17T06:53:05.747Z,24.20
2023-05-17T06:54:05.679Z,24.19
2023-05-17T06:55:02.461Z,24.19
2023-05-17T06:56:34.277Z,24.18
2023-05-17T06:57:09.857Z,24.18
2023-05-17T06:58:02.484Z,24.16
2023-05-17T06:59:03.180Z,24.16
2023-05-17T07:00:02.576Z,24.17
2023-05-17T07:01:09.844Z,24.17
2023-05-17T07:02:02.453Z,24.16
2023-05-17T07:03:03.944Z,24.15
2023-05-17T07:04:18.267Z,24.16
2023-05-17T07:05:10.213Z,24.14
2023-05-17T07:07:02.694Z,24.12
2023-05-17T07:08:18.979Z,24.12
2023-05-17T07:09:05.678Z,24.11
2023-05-17T07:10:02.505Z,24.11
2023-05-17T07:11:02.474Z,24.11
2023-05-17T07:12:02.461Z,24.10
2023-05-17T07:13:02.733Z,24.10
2023-05-17T07:14:02.459Z,24.11
2023-05-17T07:15:05.666Z,24.11
2023-05-17T07:16:02.493Z,24.10
2023-05-17T07:17:02.450Z,24.09
2023-05-17T07:18:02.658Z,24.09
2023-05-17T07:19:02.842Z,24.10
2023-05-17T07:20:02.690Z,24.09
2023-05-17T07:21:03.595Z,24.09
2023-05-17T07:22:02.596Z,24.09
2023-05-17T07:23:02.392Z,24.09
2023-05-17T07:24:02.532Z,24.08
2023-05-17T07:25:02.391Z,24.09
2023-05-17T07:26:02.995Z,24.09
2023-05-17T07:27:02.492Z,24.08
2023-05-17T07:28:02.556Z,24.08
2023-05-17T07:29:02.612Z,24.08
2023-05-17T07:30:02.672Z,24.08
2023-05-17T07:31:02.775Z,24.08
2023-05-17T07:32:02.798Z,24.07
2023-05-17T07:33:03.033Z,24.08
2023-05-17T07:34:02.938Z,24.08
2023-05-17T07:35:03.037Z,24.08
2023-05-17T07:36:03.517Z,24.08
2023-05-17T07:37:03.112Z,24.08
2023-05-17T07:38:03.166Z,24.08
2023-05-17T07:39:03.253Z,24.06
2023-05-17T07:40:03.593Z,24.01
2023-05-17T07:41:06.547Z,24.00
2023-05-17T07:42:05.430Z,24.00
2023-05-17T07:43:03.555Z,23.99
2023-05-17T07:44:10.831Z,24.01
2023-05-17T07:45:03.355Z,24.02
2023-05-17T07:46:03.303Z,24.05
2023-05-17T07:47:03.336Z,24.07
2023-05-17T07:48:03.686Z,24.10
2023-05-17T07:49:03.373Z,24.12
2023-05-17T07:50:06.514Z,24.13
2023-05-17T07:51:03.321Z,24.13
2023-05-17T07:52:03.259Z,24.14
2023-05-17T07:53:06.784Z,24.15
2023-05-17T07:54:10.661Z,24.14
2023-05-17T07:55:06.559Z,24.15
2023-05-17T07:56:03.591Z,24.15
2023-05-17T07:57:04.011Z,24.18
2023-05-17T07:58:19.139Z,24.17
2023-05-17T07:59:10.656Z,24.17
2023-05-17T08:00:18.824Z,24.15
2023-05-17T08:01:10.602Z,24.14
2023-05-17T08:02:18.794Z,24.14
2023-05-17T08:03:03.532Z,24.12
2023-05-17T08:04:06.434Z,24.13
2023-05-17T08:05:03.188Z,24.13
2023-05-17T08:06:03.204Z,24.14
2023-05-17T08:07:03.161Z,24.14
2023-05-17T08:08:03.520Z,24.14
2023-05-17T08:09:03.259Z,24.13
2023-05-17T08:10:03.149Z,24.13
2023-05-17T08:11:03.149Z,24.12
2023-05-17T08:12:34.920Z,24.11
2023-05-17T08:13:03.128Z,24.08
2023-05-17T08:14:03.119Z,24.09
2023-05-17T08:15:03.138Z,24.09
2023-05-17T08:16:12.721Z,24.10
2023-05-17T08:17:03.344Z,24.09
2023-05-17T08:18:04.924Z,24.09
2023-05-17T08:19:04.764Z,24.09
2023-05-17T08:20:03.219Z,24.09
2023-05-17T08:21:03.071Z,24.08
2023-05-17T08:22:03.076Z,24.08
2023-05-17T08:23:03.532Z,24.08
2023-05-17T08:24:04.116Z,24.06
2023-05-17T08:25:03.103Z,24.06
2023-05-17T08:26:03.037Z,24.05
2023-05-17T08:27:03.027Z,24.05
2023-05-17T08:28:03.610Z,24.05
2023-05-17T08:29:03.049Z,24.05
2023-05-17T08:30:05.458Z,24.03
2023-05-17T08:31:03.300Z,24.02
2023-05-17T08:32:03.081Z,24.03
2023-05-17T08:34:04.162Z,24.01
2023-05-17T08:35:03.066Z,24.02
2023-05-17T08:36:03.061Z,24.01
2023-05-17T08:37:03.560Z,24.01
2023-05-17T08:38:03.426Z,24.01
2023-05-17T08:39:03.058Z,24.00
2023-05-17T08:40:03.077Z,24.00
2023-05-17T08:41:06.359Z,24.00
2023-05-17T08:42:03.524Z,23.99
2023-05-17T08:43:03.564Z,23.98
2023-05-17T08:44:03.542Z,23.97
2023-05-17T08:45:04.077Z,23.97
2023-05-17T08:46:03.530Z,23.96
2023-05-17T08:47:03.023Z,23.97
2023-05-17T08:48:03.566Z,23.96
2023-05-17T08:49:03.167Z,23.96
2023-05-17T08:50:03.045Z,23.96
2023-05-17T08:51:03.014Z,23.95
2023-05-17T08:52:03.018Z,23.95
2023-05-17T08:53:03.056Z,23.96
2023-05-17T08:54:03.077Z,23.95
2023-05-17T08:55:03.518Z,23.94
2023-05-17T08:56:03.217Z,23.94
2023-05-17T08:57:03.553Z,23.93
2023-05-17T08:58:03.304Z,23.93
2023-05-17T08:59:03.369Z,23.93
2023-05-17T09:00:03.425Z,23.93
2023-05-17T09:01:03.507Z,23.92
2023-05-17T09:02:04.032Z,23.92
2023-05-17T09:03:04.114Z,23.92
2023-05-17T09:04:04.665Z,23.92
2023-05-17T09:05:07.053Z,23.91
2023-05-17T09:06:03.917Z,23.92
2023-05-17T09:07:04.030Z,23.91
2023-05-17T09:08:03.708Z,23.92
2023-05-17T09:09:03.711Z,23.91
2023-05-17T09:10:03.689Z,23.92
2023-05-17T09:11:03.697Z,23.92
2023-05-17T09:12:04.550Z,23.92
2023-05-17T09:13:03.701Z,23.92
2023-05-17T09:14:03.678Z,23.92
2023-05-17T09:15:03.674Z,23.92
2023-05-17T09:16:03.660Z,23.92
2023-05-17T09:17:04.623Z,23.91
2023-05-17T09:18:04.174Z,23.92
2023-05-17T09:19:04.560Z,23.90
2023-05-17T09:20:03.723Z,23.91
2023-05-17T09:21:11.019Z,23.90
2023-05-17T09:22:03.631Z,23.90
2023-05-17T09:23:04.036Z,23.90
2023-05-17T09:24:07.780Z,23.90
2023-05-17T09:25:03.586Z,23.90
2023-05-17T09:26:03.635Z,23.90
2023-05-17T09:27:03.609Z,23.90
2023-05-17T09:28:04.072Z,23.90
2023-05-17T09:29:03.624Z,23.89
2023-05-17T09:30:04.061Z,23.87
2023-05-17T09:31:06.773Z,23.82
2023-05-17T09:32:04.551Z,23.69
2023-05-17T09:33:03.576Z,23.54
2023-05-17T09:34:03.566Z,23.32
2023-05-17T09:35:03.578Z,23.08
2023-05-17T09:36:04.538Z,22.86
2023-05-17T09:37:04.525Z,22.69
2023-05-17T09:38:03.558Z,22.53
2023-05-17T09:39:03.484Z,22.40
2023-05-17T09:40:03.486Z,22.26
2023-05-17T09:41:03.462Z,22.17
2023-05-17T09:42:03.546Z,22.10
2023-05-17T09:43:03.563Z,22.05
2023-05-17T09:44:03.447Z,22.01
2023-05-17T09:45:03.552Z,21.99
2023-05-17T09:46:03.433Z,21.96
2023-05-17T09:47:03.439Z,21.96
2023-05-17T09:48:03.616Z,21.98
2023-05-17T09:49:04.288Z,22.02
2023-05-17T09:50:03.469Z,22.08
2023-05-17T09:51:04.510Z,22.15
2023-05-17T09:52:03.565Z,22.25
2023-05-17T09:53:04.093Z,22.34
2023-05-17T09:54:03.623Z,22.43
2023-05-17T09:55:03.603Z,22.53
2023-05-17T09:56:03.679Z,22.61
2023-05-17T09:57:03.704Z,22.70
2023-05-17T09:58:04.087Z,22.80
2023-05-17T09:59:03.805Z,22.90
2023-05-17T10:00:03.862Z,22.98
2023-05-17T10:01:03.901Z,23.07
2023-05-17T10:02:07.089Z,23.14
2023-05-17T10:03:04.132Z,23.21
2023-05-17T10:04:03.919Z,23.27
2023-05-17T10:05:03.934Z,23.34
2023-05-17T10:06:03.962Z,23.39
2023-05-17T10:07:03.853Z,23.43
2023-05-17T10:08:03.847Z,23.49
2023-05-17T10:09:03.840Z,23.54
2023-05-17T10:10:04.057Z,23.59
2023-05-17T10:11:03.827Z,23.62
2023-05-17T10:12:03.811Z,23.66
2023-05-17T10:13:03.834Z,23.70
2023-05-17T10:14:03.807Z,23.74
2023-05-17T10:15:03.852Z,23.78
2023-05-17T10:16:03.798Z,23.81
2023-05-17T10:17:03.840Z,23.85
2023-05-17T10:18:03.902Z,23.88
2023-05-17T10:19:03.865Z,23.90
2023-05-17T10:20:03.949Z,23.93
2023-05-17T10:21:03.777Z,23.95
2023-05-17T10:23:02.740Z,23.99
2023-05-17T10:24:06.928Z,24.01
2023-05-17T10:25:04.062Z,24.02
2023-05-17T10:26:03.717Z,24.04
2023-05-17T10:27:03.716Z,24.06
2023-05-17T10:28:03.724Z,24.08
2023-05-17T10:29:03.725Z,24.09
2023-05-17T10:30:05.103Z,24.12
2023-05-17T10:31:03.706Z,24.13
2023-05-17T10:32:04.017Z,24.13
2023-05-17T10:33:04.003Z,24.15
2023-05-17T10:34:03.771Z,24.15
2023-05-17T10:35:11.447Z,24.16
2023-05-17T10:36:03.765Z,24.16
2023-05-17T10:37:03.754Z,24.17
2023-05-17T10:38:04.060Z,24.18
2023-05-17T10:39:03.735Z,24.18
2023-05-17T10:40:03.729Z,24.19
2023-05-17T10:41:04.724Z,24.20
2023-05-17T10:42:14.354Z,24.22
2023-05-17T10:43:04.094Z,24.24
2023-05-17T10:44:03.717Z,24.25
2023-05-17T10:45:04.069Z,24.26
2023-05-17T10:46:03.700Z,24.27
2023-05-17T10:47:03.690Z,24.26
2023-05-17T10:48:03.810Z,24.27
2023-05-17T10:49:04.141Z,24.27
2023-05-17T10:50:03.662Z,24.28
2023-05-17T10:51:03.671Z,24.28
2023-05-17T10:52:03.647Z,24.30
2023-05-17T10:53:03.648Z,24.30
2023-05-17T10:54:04.078Z,24.30
2023-05-17T10:55:03.636Z,24.31
2023-05-17T10:56:03.639Z,24.32
2023-05-17T10:57:03.636Z,24.33
2023-05-17T10:58:03.620Z,24.34
2023-05-17T10:59:03.605Z,24.33
2023-05-17T11:00:03.604Z,24.34
2023-05-17T11:01:03.605Z,24.35
2023-05-17T11:02:03.581Z,24.37
2023-05-17T11:03:03.650Z,24.36
2023-05-17T11:04:04.068Z,24.37
2023-05-17T11:05:04.157Z,24.38
2023-05-17T11:06:03.744Z,24.40
2023-05-17T11:07:04.854Z,24.40
2023-05-17T11:08:03.544Z,24.40
2023-05-17T11:09:03.570Z,24.40
2023-05-17T11:10:03.527Z,24.40
2023-05-17T11:11:03.549Z,24.41
2023-05-17T11:12:03.527Z,24.40
2023-05-17T11:13:03.567Z,24.40
2023-05-17T11:14:03.520Z,24.41
2023-05-17T11:15:03.501Z,24.40
2023-05-17T11:16:03.509Z,24.40
2023-05-17T11:17:03.486Z,24.36
2023-05-17T11:18:03.521Z,24.37
2023-05-17T11:19:03.659Z,24.39
2023-05-17T11:20:03.529Z,24.39
2023-05-17T11:21:03.576Z,24.40
2023-05-17T11:22:03.450Z,24.41
2023-05-17T11:23:03.439Z,24.41
2023-05-17T11:24:03.449Z,24.42
2023-05-17T11:25:03.456Z,24.42
2023-05-17T11:26:15.335Z,24.42
2023-05-17T11:27:03.421Z,24.41
2023-05-17T11:28:03.411Z,24.40
2023-05-17T11:29:03.409Z,24.40
2023-05-17T11:30:03.409Z,24.41
2023-05-17T11:31:03.423Z,24.41
2023-05-17T11:32:03.384Z,24.40
2023-05-17T11:33:03.740Z,24.40
2023-05-17T11:34:03.457Z,24.39
2023-05-17T11:35:03.367Z,24.38
2023-05-17T11:36:03.356Z,24.37
2023-05-17T11:37:03.384Z,24.37
2023-05-17T11:38:03.345Z,24.36
2023-05-17T11:39:08.186Z,24.36
2023-05-17T11:40:03.336Z,24.35
2023-05-17T11:41:04.700Z,24.36
2023-05-17T11:42:03.346Z,24.36
2023-05-17T11:43:03.311Z,24.34
2023-05-17T11:44:03.311Z,24.31
2023-05-17T11:45:03.329Z,24.32
2023-05-17T11:46:03.359Z,24.31
2023-05-17T11:47:03.389Z,24.31
2023-05-17T11:48:03.322Z,24.32
2023-05-17T11:49:03.279Z,24.34
2023-05-17T11:50:03.261Z,24.37
2023-05-17T11:51:03.261Z,24.37
2023-05-17T11:52:03.248Z,24.39
2023-05-17T11:53:03.263Z,24.40
2023-05-17T11:54:03.247Z,24.40
2023-05-17T11:55:03.241Z,24.40
2023-05-17T11:56:03.235Z,24.41
2023-05-17T11:57:03.216Z,24.41
2023-05-17T11:58:03.208Z,24.41
2023-05-17T11:59:03.202Z,24.43
2023-05-17T12:00:03.599Z,24.44
2023-05-17T12:01:03.196Z,24.45
2023-05-17T12:02:03.188Z,24.47
2023-05-17T12:03:03.224Z,24.47
2023-05-17T12:04:03.201Z,24.48
2023-05-17T12:05:03.350Z,24.49
2023-05-17T12:06:03.245Z,24.50
2023-05-17T12:07:03.166Z,24.51
2023-05-17T12:08:03.152Z,24.50
2023-05-17T12:09:03.638Z,24.51
2023-05-17T12:10:03.130Z,24.51
2023-05-17T12:11:03.616Z,24.51
2023-05-17T12:12:03.137Z,24.50
2023-05-17T12:13:03.117Z,24.50
2023-05-17T12:14:03.117Z,24.49
2023-05-17T12:15:03.114Z,24.50
2023-05-17T12:16:03.109Z,24.50
2023-05-17T12:17:03.111Z,24.51
2023-05-17T12:18:03.179Z,24.51
2023-05-17T12:19:03.292Z,24.49
2023-05-17T12:20:03.181Z,24.51
2023-05-17T12:21:03.060Z,24.51
2023-05-17T12:22:03.051Z,24.51
2023-05-17T12:23:03.044Z,24.51
2023-05-17T12:24:03.066Z,24.53
2023-05-17T12:25:03.065Z,24.52
2023-05-17T12:26:03.031Z,24.53
2023-05-17T12:27:10.492Z,24.53
2023-05-17T12:28:03.068Z,24.53
2023-05-17T12:29:03.028Z,24.54
2023-05-17T12:30:03.061Z,24.55
2023-05-17T12:31:03.047Z,24.57
2023-05-17T12:32:03.016Z,24.57
2023-05-17T12:33:03.093Z,24.57
2023-05-17T12:34:03.183Z,24.56
2023-05-17T12:35:03.042Z,24.56
2023-05-17T12:36:03.037Z,24.56
2023-05-17T12:37:02.967Z,24.56
2023-05-17T12:38:03.003Z,24.57
2023-05-17T12:39:02.951Z,24.57
2023-05-17T12:40:03.106Z,24.58
2023-05-17T12:41:02.971Z,24.59
2023-05-17T12:42:02.961Z,24.61
2023-05-17T12:43:03.049Z,24.61
2023-05-17T12:44:14.400Z,24.62
2023-05-17T12:45:02.927Z,24.62
2023-05-17T12:46:03.853Z,24.63
2023-05-17T12:47:03.325Z,24.63
2023-05-17T12:48:03.504Z,24.65
2023-05-17T12:49:02.977Z,24.65
2023-05-17T12:50:02.886Z,24.65
2023-05-17T12:51:03.128Z,24.67
2023-05-17T12:52:02.879Z,24.66
2023-05-17T12:53:02.874Z,24.68
2023-05-17T12:54:02.937Z,24.69
2023-05-17T12:55:02.991Z,24.69
2023-05-17T12:56:03.104Z,24.69
2023-05-17T12:57:03.187Z,24.66
2023-05-17T12:58:03.221Z,24.67